sensor_id;sensor_type;location;lat;lon;timestamp;temperature;humidity
5962;DHT22;3007;50.770;0.250;2023-11-19T00:00:13;13.40;99.90
5962;DHT22;3007;50.770;0.250;2023-11-19T00:02:40;13.30;99.90
5962;DHT22;3007;50.770;0.250;2023-11-19T00:05:08;13.20;99.90
5962;DHT22;3007;50.770;0.250;2023-11-19T00:07:38;13.10;99.90
5962;DHT22;3007;50.770;0.250;2023-11-19T00:10:08;13.00;99.90
5962;DHT22;3007;50.770;0.250;2023-11-19T00:12:37;12.90;99.90
5962;DHT22;3007;50.770;0.250;2023-11-19T00:15:04;12.90;99.90
5962;DHT22;3007;50.770;0.250;2023-11-19T00:17:31;12.80;99.90
5962;DHT22;3007;50.770;0.250;2023-11-19T00:19:58;12.70;99.90
5962;DHT22;3007;50.770;0.250;2023-11-19T00:22:25;12.80;99.90
5962;DHT22;3007;50.770;0.250;2023-11-19T00:24:52;12.70;99.90
5962;DHT22;3007;50.770;0.250;2023-11-19T00:27:20;12.70;99.90
5962;DHT22;3007;50.770;0.250;2023-11-19T00:29:46;12.70;99.90
5962;DHT22;3007;50.770;0.250;2023-11-19T00:32:13;12.70;99.90
5962;DHT22;3007;50.770;0.250;2023-11-19T00:34:41;12.60;99.90
5962;DHT22;3007;50.770;0.250;2023-11-19T00:37:09;12.60;99.90
5962;DHT22;3007;50.770;0.250;2023-11-19T00:39:36;12.60;99.90
5962;DHT22;3007;50.770;0.250;2023-11-19T00:42:03;12.60;99.90
5962;DHT22;3007;50.770;0.250;2023-11-19T00:44:32;12.50;99.90
5962;DHT22;3007;50.770;0.250;2023-11-19T00:46:59;12.50;99.90
5962;DHT22;3007;50.770;0.250;2023-11-19T00:49:26;12.50;99.90
5962;DHT22;3007;50.770;0.250;2023-11-19T00:51:53;12.50;99.90
5962;DHT22;3007;50.770;0.250;2023-11-19T00:54:20;12.50;99.90
5962;DHT22;3007;50.770;0.250;2023-11-19T00:56:46;12.60;99.90
5962;DHT22;3007;50.770;0.250;2023-11-19T00:59:13;12.60;99.90
5962;DHT22;3007;50.770;0.250;2023-11-19T01:01:42;12.60;99.90
5962;DHT22;3007;50.770;0.250;2023-11-19T01:04:09;12.60;99.90
5962;DHT22;3007;50.770;0.250;2023-11-19T01:06:36;12.60;99.90
5962;DHT22;3007;50.770;0.250;2023-11-19T01:09:03;12.60;99.90
5962;DHT22;3007;50.770;0.250;2023-11-19T01:11:29;12.70;99.90
5962;DHT22;3007;50.770;0.250;2023-11-19T01:13:57;12.60;99.90
5962;DHT22;3007;50.770;0.250;2023-11-19T01:16:24;12.60;99.90
5962;DHT22;3007;50.770;0.250;2023-11-19T01:18:53;12.60;99.90
5962;DHT22;3007;50.770;0.250;2023-11-19T01:21:21;12.60;99.90
5962;DHT22;3007;50.770;0.250;2023-11-19T01:23:48;12.60;99.90
5962;DHT22;3007;50.770;0.250;2023-11-19T01:26:15;12.50;99.90
5962;DHT22;3007;50.770;0.250;2023-11-19T01:28:42;12.50;99.90
5962;DHT22;3007;50.770;0.250;2023-11-19T01:31:10;12.60;99.90
5962;DHT22;3007;50.770;0.250;2023-11-19T01:33:38;12.60;99.90
5962;DHT22;3007;50.770;0.250;2023-11-19T01:36:07;12.60;99.90
5962;DHT22;3007;50.770;0.250;2023-11-19T01:38:35;12.60;99.90
5962;DHT22;3007;50.770;0.250;2023-11-19T01:41:02;12.60;99.90
5962;DHT22;3007;50.770;0.250;2023-11-19T01:43:33;12.60;99.90
5962;DHT22;3007;50.770;0.250;2023-11-19T01:46:01;12.50;99.90
5962;DHT22;3007;50.770;0.250;2023-11-19T01:48:28;12.50;99.90
5962;DHT22;3007;50.770;0.250;2023-11-19T01:50:55;12.50;99.90
5962;DHT22;3007;50.770;0.250;2023-11-19T01:53:24;12.40;99.90
5962;DHT22;3007;50.770;0.250;2023-11-19T01:55:51;12.40;99.90
5962;DHT22;3007;50.770;0.250;2023-11-19T01:58:19;12.40;99.90
5962;DHT22;3007;50.770;0.250;2023-11-19T02:00:46;12.40;99.90
5962;DHT22;3007;50.770;0.250;2023-11-19T02:03:15;12.30;99.90
5962;DHT22;3007;50.770;0.250;2023-11-19T02:05:41;12.30;99.90
5962;DHT22;3007;50.770;0.250;2023-11-19T02:08:09;12.30;99.90
5962;DHT22;3007;50.770;0.250;2023-11-19T02:10:37;12.30;99.90
5962;DHT22;3007;50.770;0.250;2023-11-19T02:13:04;12.20;99.90
5962;DHT22;3007;50.770;0.250;2023-11-19T02:15:33;12.20;99.90
5962;DHT22;3007;50.770;0.250;2023-11-19T02:18:17;12.20;99.90
5962;DHT22;3007;50.770;0.250;2023-11-19T02:20:44;12.20;99.90
5962;DHT22;3007;50.770;0.250;2023-11-19T02:23:11;12.20;99.90
5962;DHT22;3007;50.770;0.250;2023-11-19T02:25:40;12.30;99.90
5962;DHT22;3007;50.770;0.250;2023-11-19T02:28:08;12.30;99.90
5962;DHT22;3007;50.770;0.250;2023-11-19T02:30:37;12.30;99.90
5962;DHT22;3007;50.770;0.250;2023-11-19T02:33:04;12.20;99.90
5962;DHT22;3007;50.770;0.250;2023-11-19T02:35:32;12.30;99.90
5962;DHT22;3007;50.770;0.250;2023-11-19T02:37:59;12.20;99.90
5962;DHT22;3007;50.770;0.250;2023-11-19T02:40:26;12.20;99.90
5962;DHT22;3007;50.770;0.250;2023-11-19T02:42:53;12.30;99.90
5962;DHT22;3007;50.770;0.250;2023-11-19T02:45:22;12.40;99.90
5962;DHT22;3007;50.770;0.250;2023-11-19T02:47:49;12.40;99.90
5962;DHT22;3007;50.770;0.250;2023-11-19T02:50:17;12.40;99.90
5962;DHT22;3007;50.770;0.250;2023-11-19T02:52:51;12.50;99.90
5962;DHT22;3007;50.770;0.250;2023-11-19T02:55:19;12.60;99.90
5962;DHT22;3007;50.770;0.250;2023-11-19T02:57:46;12.60;99.90
5962;DHT22;3007;50.770;0.250;2023-11-19T03:00:16;12.60;99.90
5962;DHT22;3007;50.770;0.250;2023-11-19T03:02:45;12.60;99.90
5962;DHT22;3007;50.770;0.250;2023-11-19T03:05:13;12.60;99.90
5962;DHT22;3007;50.770;0.250;2023-11-19T03:07:42;12.60;99.90
5962;DHT22;3007;50.770;0.250;2023-11-19T03:10:10;12.50;99.90
5962;DHT22;3007;50.770;0.250;2023-11-19T03:12:39;12.60;99.90
5962;DHT22;3007;50.770;0.250;2023-11-19T03:15:07;12.50;99.90
5962;DHT22;3007;50.770;0.250;2023-11-19T03:17:35;12.50;99.90
5962;DHT22;3007;50.770;0.250;2023-11-19T03:20:05;12.50;99.90
5962;DHT22;3007;50.770;0.250;2023-11-19T03:22:36;12.50;99.90
5962;DHT22;3007;50.770;0.250;2023-11-19T03:25:04;12.50;99.90
5962;DHT22;3007;50.770;0.250;2023-11-19T03:27:33;12.50;99.90
5962;DHT22;3007;50.770;0.250;2023-11-19T03:30:01;12.50;99.90
5962;DHT22;3007;50.770;0.250;2023-11-19T03:32:28;12.50;99.90
5962;DHT22;3007;50.770;0.250;2023-11-19T03:34:55;12.50;99.90
5962;DHT22;3007;50.770;0.250;2023-11-19T03:37:23;12.60;99.90
5962;DHT22;3007;50.770;0.250;2023-11-19T03:39:50;12.60;99.90
5962;DHT22;3007;50.770;0.250;2023-11-19T03:42:19;12.60;99.90
5962;DHT22;3007;50.770;0.250;2023-11-19T03:44:46;12.70;99.90
5962;DHT22;3007;50.770;0.250;2023-11-19T03:47:14;12.50;99.90
5962;DHT22;3007;50.770;0.250;2023-11-19T03:49:41;12.50;99.90
5962;DHT22;3007;50.770;0.250;2023-11-19T03:52:09;12.50;99.90
5962;DHT22;3007;50.770;0.250;2023-11-19T03:54:37;12.40;99.90
5962;DHT22;3007;50.770;0.250;2023-11-19T03:57:05;12.40;99.90
5962;DHT22;3007;50.770;0.250;2023-11-19T03:59:33;12.40;99.90
5962;DHT22;3007;50.770;0.250;2023-11-19T04:01:59;12.40;99.90
5962;DHT22;3007;50.770;0.250;2023-11-19T04:04:28;12.40;99.90
5962;DHT22;3007;50.770;0.250;2023-11-19T04:06:55;12.50;99.90
5962;DHT22;3007;50.770;0.250;2023-11-19T04:09:22;12.50;99.90
5962;DHT22;3007;50.770;0.250;2023-11-19T04:11:50;12.60;99.90
5962;DHT22;3007;50.770;0.250;2023-11-19T04:14:17;12.60;99.90
5962;DHT22;3007;50.770;0.250;2023-11-19T04:16:44;12.70;99.90
5962;DHT22;3007;50.770;0.250;2023-11-19T04:19:11;12.80;99.90
5962;DHT22;3007;50.770;0.250;2023-11-19T04:21:40;12.80;99.90
5962;DHT22;3007;50.770;0.250;2023-11-19T04:24:08;12.80;99.90
5962;DHT22;3007;50.770;0.250;2023-11-19T04:26:40;12.80;99.90
5962;DHT22;3007;50.770;0.250;2023-11-19T04:29:09;12.80;99.90
5962;DHT22;3007;50.770;0.250;2023-11-19T04:31:36;12.80;99.90
5962;DHT22;3007;50.770;0.250;2023-11-19T04:34:03;12.80;99.90
5962;DHT22;3007;50.770;0.250;2023-11-19T04:36:30;12.80;99.90
5962;DHT22;3007;50.770;0.250;2023-11-19T04:38:57;12.90;99.90
5962;DHT22;3007;50.770;0.250;2023-11-19T04:41:25;12.90;99.90
5962;DHT22;3007;50.770;0.250;2023-11-19T04:43:53;12.90;99.90
5962;DHT22;3007;50.770;0.250;2023-11-19T04:46:21;13.00;99.90
5962;DHT22;3007;50.770;0.250;2023-11-19T04:48:49;13.00;99.90
5962;DHT22;3007;50.770;0.250;2023-11-19T04:51:16;12.90;99.90
5962;DHT22;3007;50.770;0.250;2023-11-19T04:53:42;13.00;99.90
5962;DHT22;3007;50.770;0.250;2023-11-19T04:56:10;13.00;99.90
5962;DHT22;3007;50.770;0.250;2023-11-19T04:58:37;13.00;99.90
5962;DHT22;3007;50.770;0.250;2023-11-19T05:01:04;13.00;99.90
5962;DHT22;3007;50.770;0.250;2023-11-19T05:03:33;13.00;99.90
5962;DHT22;3007;50.770;0.250;2023-11-19T05:05:59;13.00;99.90
5962;DHT22;3007;50.770;0.250;2023-11-19T05:08:26;13.00;99.90
5962;DHT22;3007;50.770;0.250;2023-11-19T05:10:53;13.10;99.90
5962;DHT22;3007;50.770;0.250;2023-11-19T05:13:20;13.10;99.90
5962;DHT22;3007;50.770;0.250;2023-11-19T05:15:47;13.00;99.90
5962;DHT22;3007;50.770;0.250;2023-11-19T05:18:14;13.00;99.90
5962;DHT22;3007;50.770;0.250;2023-11-19T05:20:43;12.90;99.90
5962;DHT22;3007;50.770;0.250;2023-11-19T05:23:10;10.00;99.90
5962;DHT22;3007;50.770;0.250;2023-11-19T05:25:37;12.80;99.90
5962;DHT22;3007;50.770;0.250;2023-11-19T05:28:04;12.80;99.90
5962;DHT22;3007;50.770;0.250;2023-11-19T05:30:30;12.80;99.90
5962;DHT22;3007;50.770;0.250;2023-11-19T05:32:57;12.80;99.90
5962;DHT22;3007;50.770;0.250;2023-11-19T05:35:24;12.70;99.90
5962;DHT22;3007;50.770;0.250;2023-11-19T05:37:52;12.70;99.90
5962;DHT22;3007;50.770;0.250;2023-11-19T05:40:19;12.70;99.90
5962;DHT22;3007;50.770;0.250;2023-11-19T05:42:46;12.70;99.90
5962;DHT22;3007;50.770;0.250;2023-11-19T05:45:13;12.70;99.90
5962;DHT22;3007;50.770;0.250;2023-11-19T05:47:41;12.70;99.90
5962;DHT22;3007;50.770;0.250;2023-11-19T05:50:09;12.70;99.90
5962;DHT22;3007;50.770;0.250;2023-11-19T05:52:36;12.70;99.90
5962;DHT22;3007;50.770;0.250;2023-11-19T05:55:05;12.70;99.90
5962;DHT22;3007;50.770;0.250;2023-11-19T05:57:35;12.70;99.90
5962;DHT22;3007;50.770;0.250;2023-11-19T06:00:02;12.80;99.90
5962;DHT22;3007;50.770;0.250;2023-11-19T06:02:32;12.80;99.90
5962;DHT22;3007;50.770;0.250;2023-11-19T06:04:59;12.80;99.90
5962;DHT22;3007;50.770;0.250;2023-11-19T06:07:26;12.90;99.90
5962;DHT22;3007;50.770;0.250;2023-11-19T06:09:53;12.90;99.90
5962;DHT22;3007;50.770;0.250;2023-11-19T06:12:21;12.90;99.90
5962;DHT22;3007;50.770;0.250;2023-11-19T06:14:48;12.90;99.90
5962;DHT22;3007;50.770;0.250;2023-11-19T06:17:15;13.00;99.90
5962;DHT22;3007;50.770;0.250;2023-11-19T06:19:41;13.00;99.90
5962;DHT22;3007;50.770;0.250;2023-11-19T06:22:08;12.90;99.90
5962;DHT22;3007;50.770;0.250;2023-11-19T06:24:35;13.00;99.90
5962;DHT22;3007;50.770;0.250;2023-11-19T06:27:02;12.90;99.90
5962;DHT22;3007;50.770;0.250;2023-11-19T06:29:31;12.90;99.90
5962;DHT22;3007;50.770;0.250;2023-11-19T06:31:58;12.90;99.90
5962;DHT22;3007;50.770;0.250;2023-11-19T06:34:24;12.90;99.90
5962;DHT22;3007;50.770;0.250;2023-11-19T06:36:51;12.90;99.90
5962;DHT22;3007;50.770;0.250;2023-11-19T06:39:18;13.00;99.90
5962;DHT22;3007;50.770;0.250;2023-11-19T06:41:45;12.90;99.90
5962;DHT22;3007;50.770;0.250;2023-11-19T06:44:12;12.90;99.90
5962;DHT22;3007;50.770;0.250;2023-11-19T06:46:41;12.90;99.90
5962;DHT22;3007;50.770;0.250;2023-11-19T06:49:08;13.00;99.90
5962;DHT22;3007;50.770;0.250;2023-11-19T06:51:35;13.10;99.90
5962;DHT22;3007;50.770;0.250;2023-11-19T06:54:01;13.10;99.90
5962;DHT22;3007;50.770;0.250;2023-11-19T06:56:28;13.20;99.90
5962;DHT22;3007;50.770;0.250;2023-11-19T06:58:55;13.00;99.90
5962;DHT22;3007;50.770;0.250;2023-11-19T07:01:22;13.10;99.90
5962;DHT22;3007;50.770;0.250;2023-11-19T07:03:50;13.10;99.90
5962;DHT22;3007;50.770;0.250;2023-11-19T07:06:17;13.10;99.90
5962;DHT22;3007;50.770;0.250;2023-11-19T07:08:44;13.00;99.90
5962;DHT22;3007;50.770;0.250;2023-11-19T07:11:12;12.90;99.90
5962;DHT22;3007;50.770;0.250;2023-11-19T07:13:40;12.90;99.90
5962;DHT22;3007;50.770;0.250;2023-11-19T07:16:08;12.80;99.90
5962;DHT22;3007;50.770;0.250;2023-11-19T07:18:36;12.70;99.90
5962;DHT22;3007;50.770;0.250;2023-11-19T07:21:06;12.70;99.90
5962;DHT22;3007;50.770;0.250;2023-11-19T07:23:35;12.60;99.90
5962;DHT22;3007;50.770;0.250;2023-11-19T07:26:05;12.20;99.90
5962;DHT22;3007;50.770;0.250;2023-11-19T07:28:33;12.50;99.90
5962;DHT22;3007;50.770;0.250;2023-11-19T07:31:00;12.60;99.90
5962;DHT22;3007;50.770;0.250;2023-11-19T07:33:27;12.60;99.90
5962;DHT22;3007;50.770;0.250;2023-11-19T07:35:55;12.60;99.90
5962;DHT22;3007;50.770;0.250;2023-11-19T07:38:23;12.60;99.90
5962;DHT22;3007;50.770;0.250;2023-11-19T07:40:53;12.60;99.90
5962;DHT22;3007;50.770;0.250;2023-11-19T07:43:19;12.60;99.90
5962;DHT22;3007;50.770;0.250;2023-11-19T07:45:46;12.70;99.90
5962;DHT22;3007;50.770;0.250;2023-11-19T07:48:13;12.70;99.90
5962;DHT22;3007;50.770;0.250;2023-11-19T07:50:41;12.80;99.90
5962;DHT22;3007;50.770;0.250;2023-11-19T07:53:08;12.70;99.90
5962;DHT22;3007;50.770;0.250;2023-11-19T07:55:36;12.70;99.90
5962;DHT22;3007;50.770;0.250;2023-11-19T07:58:02;12.60;99.90
5962;DHT22;3007;50.770;0.250;2023-11-19T08:00:29;12.60;99.90
5962;DHT22;3007;50.770;0.250;2023-11-19T08:02:56;12.60;99.90
5962;DHT22;3007;50.770;0.250;2023-11-19T08:05:23;12.60;99.90
5962;DHT22;3007;50.770;0.250;2023-11-19T08:07:50;12.60;99.90
5962;DHT22;3007;50.770;0.250;2023-11-19T08:10:18;12.60;99.90
5962;DHT22;3007;50.770;0.250;2023-11-19T08:12:46;12.70;99.90
5962;DHT22;3007;50.770;0.250;2023-11-19T08:15:13;12.70;99.90
5962;DHT22;3007;50.770;0.250;2023-11-19T08:17:41;12.70;99.90
5962;DHT22;3007;50.770;0.250;2023-11-19T08:20:08;12.80;99.90
5962;DHT22;3007;50.770;0.250;2023-11-19T08:22:36;12.80;99.90
5962;DHT22;3007;50.770;0.250;2023-11-19T08:25:03;13.20;99.90
5962;DHT22;3007;50.770;0.250;2023-11-19T08:27:30;12.90;99.90
5962;DHT22;3007;50.770;0.250;2023-11-19T08:29:58;13.00;99.90
5962;DHT22;3007;50.770;0.250;2023-11-19T08:32:26;13.00;99.90
5962;DHT22;3007;50.770;0.250;2023-11-19T08:34:54;13.10;99.90
5962;DHT22;3007;50.770;0.250;2023-11-19T08:37:21;13.10;99.90
5962;DHT22;3007;50.770;0.250;2023-11-19T08:39:48;13.20;99.90
5962;DHT22;3007;50.770;0.250;2023-11-19T08:42:15;13.20;99.90
5962;DHT22;3007;50.770;0.250;2023-11-19T08:44:42;13.20;99.90
5962;DHT22;3007;50.770;0.250;2023-11-19T08:47:13;13.10;99.90
5962;DHT22;3007;50.770;0.250;2023-11-19T08:49:41;13.00;99.90
5962;DHT22;3007;50.770;0.250;2023-11-19T08:52:08;12.90;99.90
5962;DHT22;3007;50.770;0.250;2023-11-19T08:54:36;12.80;99.90
5962;DHT22;3007;50.770;0.250;2023-11-19T08:57:03;12.60;99.90
5962;DHT22;3007;50.770;0.250;2023-11-19T08:59:30;12.60;99.90
5962;DHT22;3007;50.770;0.250;2023-11-19T09:01:57;12.50;99.90
5962;DHT22;3007;50.770;0.250;2023-11-19T09:04:25;12.50;99.90
5962;DHT22;3007;50.770;0.250;2023-11-19T09:06:51;12.60;99.90
5962;DHT22;3007;50.770;0.250;2023-11-19T09:09:18;12.70;99.90
5962;DHT22;3007;50.770;0.250;2023-11-19T09:11:45;12.90;99.90
5962;DHT22;3007;50.770;0.250;2023-11-19T09:14:12;12.90;99.90
5962;DHT22;3007;50.770;0.250;2023-11-19T09:16:39;13.00;99.90
5962;DHT22;3007;50.770;0.250;2023-11-19T09:19:05;13.10;99.90
5962;DHT22;3007;50.770;0.250;2023-11-19T09:21:33;13.00;99.90
5962;DHT22;3007;50.770;0.250;2023-11-19T09:24:04;13.00;99.90
5962;DHT22;3007;50.770;0.250;2023-11-19T09:26:33;13.30;99.90
5962;DHT22;3007;50.770;0.250;2023-11-19T09:28:59;13.10;99.90
5962;DHT22;3007;50.770;0.250;2023-11-19T09:31:26;13.20;99.90
5962;DHT22;3007;50.770;0.250;2023-11-19T09:33:53;13.20;99.90
5962;DHT22;3007;50.770;0.250;2023-11-19T09:36:20;13.20;99.90
5962;DHT22;3007;50.770;0.250;2023-11-19T09:38:48;13.30;99.90
5962;DHT22;3007;50.770;0.250;2023-11-19T09:41:16;13.20;99.90
5962;DHT22;3007;50.770;0.250;2023-11-19T09:43:45;13.20;99.90
5962;DHT22;3007;50.770;0.250;2023-11-19T09:46:14;13.10;99.90
5962;DHT22;3007;50.770;0.250;2023-11-19T09:48:42;13.30;99.90
5962;DHT22;3007;50.770;0.250;2023-11-19T09:51:10;13.40;99.90
5962;DHT22;3007;50.770;0.250;2023-11-19T09:53:37;13.40;99.90
5962;DHT22;3007;50.770;0.250;2023-11-19T09:56:06;13.50;99.90
5962;DHT22;3007;50.770;0.250;2023-11-19T09:58:34;13.40;99.90
5962;DHT22;3007;50.770;0.250;2023-11-19T10:01:01;13.40;99.90
5962;DHT22;3007;50.770;0.250;2023-11-19T10:03:33;13.40;99.90
5962;DHT22;3007;50.770;0.250;2023-11-19T10:06:01;13.30;99.90
5962;DHT22;3007;50.770;0.250;2023-11-19T10:08:29;13.10;99.90
5962;DHT22;3007;50.770;0.250;2023-11-19T10:13:28;13.00;99.90
5962;DHT22;3007;50.770;0.250;2023-11-19T10:15:56;13.50;99.90
5962;DHT22;3007;50.770;0.250;2023-11-19T10:18:24;13.20;99.90
5962;DHT22;3007;50.770;0.250;2023-11-19T10:20:52;13.30;99.90
5962;DHT22;3007;50.770;0.250;2023-11-19T10:23:19;13.60;99.90
5962;DHT22;3007;50.770;0.250;2023-11-19T10:25:46;13.40;99.90
5962;DHT22;3007;50.770;0.250;2023-11-19T10:28:15;13.50;99.90
5962;DHT22;3007;50.770;0.250;2023-11-19T10:30:44;13.50;99.90
5962;DHT22;3007;50.770;0.250;2023-11-19T10:33:11;13.60;99.90
5962;DHT22;3007;50.770;0.250;2023-11-19T10:35:51;13.70;99.90
5962;DHT22;3007;50.770;0.250;2023-11-19T10:38:19;13.50;99.90
5962;DHT22;3007;50.770;0.250;2023-11-19T10:40:46;13.50;99.90
5962;DHT22;3007;50.770;0.250;2023-11-19T10:43:13;13.70;99.90
5962;DHT22;3007;50.770;0.250;2023-11-19T10:45:40;13.60;99.90
5962;DHT22;3007;50.770;0.250;2023-11-19T10:48:09;13.70;99.90
5962;DHT22;3007;50.770;0.250;2023-11-19T10:50:37;14.20;99.90
5962;DHT22;3007;50.770;0.250;2023-11-19T10:53:05;13.80;99.90
5962;DHT22;3007;50.770;0.250;2023-11-19T10:55:34;13.90;99.90
5962;DHT22;3007;50.770;0.250;2023-11-19T10:58:05;13.90;99.90
5962;DHT22;3007;50.770;0.250;2023-11-19T11:00:38;13.80;99.90
5962;DHT22;3007;50.770;0.250;2023-11-19T11:03:11;13.70;99.90
5962;DHT22;3007;50.770;0.250;2023-11-19T11:05:39;13.70;99.90
5962;DHT22;3007;50.770;0.250;2023-11-19T11:08:07;13.90;99.90
5962;DHT22;3007;50.770;0.250;2023-11-19T11:10:39;13.80;99.90
5962;DHT22;3007;50.770;0.250;2023-11-19T11:13:06;13.50;99.90
5962;DHT22;3007;50.770;0.250;2023-11-19T11:15:33;13.50;99.90
5962;DHT22;3007;50.770;0.250;2023-11-19T11:18:01;13.50;99.90
5962;DHT22;3007;50.770;0.250;2023-11-19T11:20:31;13.40;99.90
5962;DHT22;3007;50.770;0.250;2023-11-19T11:23:26;13.40;99.90
5962;DHT22;3007;50.770;0.250;2023-11-19T11:26:04;13.90;99.90
5962;DHT22;3007;50.770;0.250;2023-11-19T11:28:40;13.40;99.90
5962;DHT22;3007;50.770;0.250;2023-11-19T11:31:29;13.30;99.90
5962;DHT22;3007;50.770;0.250;2023-11-19T11:34:18;13.60;99.90
5962;DHT22;3007;50.770;0.250;2023-11-19T11:36:57;13.60;99.90
5962;DHT22;3007;50.770;0.250;2023-11-19T11:39:29;13.80;99.90
5962;DHT22;3007;50.770;0.250;2023-11-19T11:44:59;14.00;99.90
5962;DHT22;3007;50.770;0.250;2023-11-19T11:50:34;14.10;99.90
5962;DHT22;3007;50.770;0.250;2023-11-19T11:53:16;14.10;99.90
5962;DHT22;3007;50.770;0.250;2023-11-19T11:55:53;14.10;99.90
5962;DHT22;3007;50.770;0.250;2023-11-19T11:58:25;13.90;99.90
5962;DHT22;3007;50.770;0.250;2023-11-19T12:00:52;13.70;99.90
5962;DHT22;3007;50.770;0.250;2023-11-19T12:03:20;13.60;99.90
5962;DHT22;3007;50.770;0.250;2023-11-19T12:08:19;13.50;99.90
5962;DHT22;3007;50.770;0.250;2023-11-19T12:10:47;13.50;99.90
5962;DHT22;3007;50.770;0.250;2023-11-19T12:13:15;13.50;99.90
5962;DHT22;3007;50.770;0.250;2023-11-19T12:16:08;13.60;99.90
5962;DHT22;3007;50.770;0.250;2023-11-19T12:18:35;13.60;99.90
5962;DHT22;3007;50.770;0.250;2023-11-19T12:21:02;13.60;99.90
5962;DHT22;3007;50.770;0.250;2023-11-19T12:23:32;13.70;99.90
5962;DHT22;3007;50.770;0.250;2023-11-19T12:25:59;13.70;99.90
5962;DHT22;3007;50.770;0.250;2023-11-19T12:28:26;13.80;99.90
5962;DHT22;3007;50.770;0.250;2023-11-19T12:30:53;13.80;99.90
5962;DHT22;3007;50.770;0.250;2023-11-19T12:33:20;13.90;99.90
5962;DHT22;3007;50.770;0.250;2023-11-19T12:35:48;13.90;99.90
5962;DHT22;3007;50.770;0.250;2023-11-19T12:38:21;13.90;99.90
5962;DHT22;3007;50.770;0.250;2023-11-19T12:41:02;13.90;99.90
5962;DHT22;3007;50.770;0.250;2023-11-19T12:43:29;13.70;99.90
5962;DHT22;3007;50.770;0.250;2023-11-19T12:45:56;13.60;99.90
5962;DHT22;3007;50.770;0.250;2023-11-19T12:48:23;13.30;99.90
5962;DHT22;3007;50.770;0.250;2023-11-19T12:50:53;13.50;99.90
5962;DHT22;3007;50.770;0.250;2023-11-19T12:53:21;13.50;99.90
5962;DHT22;3007;50.770;0.250;2023-11-19T12:55:48;13.50;99.90
5962;DHT22;3007;50.770;0.250;2023-11-19T12:58:29;13.50;99.90
5962;DHT22;3007;50.770;0.250;2023-11-19T13:01:00;13.70;99.90
5962;DHT22;3007;50.770;0.250;2023-11-19T13:03:31;13.60;99.90
5962;DHT22;3007;50.770;0.250;2023-11-19T13:06:02;13.70;99.90
5962;DHT22;3007;50.770;0.250;2023-11-19T13:08:36;13.70;99.90
5962;DHT22;3007;50.770;0.250;2023-11-19T13:11:04;13.80;99.90
5962;DHT22;3007;50.770;0.250;2023-11-19T13:13:33;13.80;99.90
5962;DHT22;3007;50.770;0.250;2023-11-19T13:16:04;13.80;99.90
5962;DHT22;3007;50.770;0.250;2023-11-19T13:18:31;13.80;99.90
5962;DHT22;3007;50.770;0.250;2023-11-19T13:20:58;13.90;99.90
5962;DHT22;3007;50.770;0.250;2023-11-19T13:25:52;14.00;99.90
5962;DHT22;3007;50.770;0.250;2023-11-19T13:28:19;14.50;99.90
5962;DHT22;3007;50.770;0.250;2023-11-19T13:30:47;15.10;99.90
5962;DHT22;3007;50.770;0.250;2023-11-19T13:33:15;14.10;99.90
5962;DHT22;3007;50.770;0.250;2023-11-19T13:35:41;15.20;99.90
5962;DHT22;3007;50.770;0.250;2023-11-19T13:38:08;14.20;99.90
5962;DHT22;3007;50.770;0.250;2023-11-19T13:43:02;14.10;99.90
5962;DHT22;3007;50.770;0.250;2023-11-19T13:45:29;14.00;99.90
5962;DHT22;3007;50.770;0.250;2023-11-19T13:47:57;13.90;99.90
5962;DHT22;3007;50.770;0.250;2023-11-19T13:50:24;14.10;99.90
5962;DHT22;3007;50.770;0.250;2023-11-19T13:52:51;13.90;99.90
5962;DHT22;3007;50.770;0.250;2023-11-19T13:55:18;14.00;99.90
5962;DHT22;3007;50.770;0.250;2023-11-19T13:57:45;13.90;99.90
5962;DHT22;3007;50.770;0.250;2023-11-19T14:00:13;13.90;99.90
5962;DHT22;3007;50.770;0.250;2023-11-19T14:02:42;13.90;99.90
5962;DHT22;3007;50.770;0.250;2023-11-19T14:05:10;13.90;99.90
5962;DHT22;3007;50.770;0.250;2023-11-19T14:07:37;13.80;99.90
5962;DHT22;3007;50.770;0.250;2023-11-19T14:10:05;13.90;99.90
5962;DHT22;3007;50.770;0.250;2023-11-19T14:12:32;13.70;99.90
5962;DHT22;3007;50.770;0.250;2023-11-19T14:14:59;15.40;99.90
5962;DHT22;3007;50.770;0.250;2023-11-19T14:17:26;13.80;99.90
5962;DHT22;3007;50.770;0.250;2023-11-19T14:19:53;13.70;99.90
5962;DHT22;3007;50.770;0.250;2023-11-19T14:22:21;13.60;99.90
5962;DHT22;3007;50.770;0.250;2023-11-19T14:24:48;13.70;99.90
5962;DHT22;3007;50.770;0.250;2023-11-19T14:27:15;13.50;99.90
5962;DHT22;3007;50.770;0.250;2023-11-19T14:29:42;13.50;99.90
5962;DHT22;3007;50.770;0.250;2023-11-19T14:32:10;13.30;99.90
5962;DHT22;3007;50.770;0.250;2023-11-19T14:34:37;13.50;99.90
5962;DHT22;3007;50.770;0.250;2023-11-19T14:37:04;13.50;99.90
5962;DHT22;3007;50.770;0.250;2023-11-19T14:39:33;13.50;99.90
5962;DHT22;3007;50.770;0.250;2023-11-19T14:42:00;13.50;99.90
5962;DHT22;3007;50.770;0.250;2023-11-19T14:44:30;13.50;99.90
5962;DHT22;3007;50.770;0.250;2023-11-19T14:46:56;13.80;99.90
5962;DHT22;3007;50.770;0.250;2023-11-19T14:49:23;13.50;99.90
5962;DHT22;3007;50.770;0.250;2023-11-19T14:51:51;13.50;99.90
5962;DHT22;3007;50.770;0.250;2023-11-19T14:54:18;13.50;99.90
5962;DHT22;3007;50.770;0.250;2023-11-19T14:56:46;13.50;99.90
5962;DHT22;3007;50.770;0.250;2023-11-19T14:59:13;13.40;99.90
5962;DHT22;3007;50.770;0.250;2023-11-19T15:01:40;13.40;99.90
5962;DHT22;3007;50.770;0.250;2023-11-19T15:04:07;13.40;99.90
5962;DHT22;3007;50.770;0.250;2023-11-19T15:06:33;12.90;99.90
5962;DHT22;3007;50.770;0.250;2023-11-19T15:09:00;13.30;99.90
5962;DHT22;3007;50.770;0.250;2023-11-19T15:11:27;13.30;99.90
5962;DHT22;3007;50.770;0.250;2023-11-19T15:13:55;13.20;99.90
5962;DHT22;3007;50.770;0.250;2023-11-19T15:16:22;13.10;99.90
5962;DHT22;3007;50.770;0.250;2023-11-19T15:18:56;13.10;99.90
5962;DHT22;3007;50.770;0.250;2023-11-19T15:21:25;13.00;99.90
5962;DHT22;3007;50.770;0.250;2023-11-19T15:23:52;13.00;99.90
5962;DHT22;3007;50.770;0.250;2023-11-19T15:26:18;13.00;99.90
5962;DHT22;3007;50.770;0.250;2023-11-19T15:28:46;13.90;99.90
5962;DHT22;3007;50.770;0.250;2023-11-19T15:31:14;13.00;99.90
5962;DHT22;3007;50.770;0.250;2023-11-19T15:33:42;14.70;99.90
5962;DHT22;3007;50.770;0.250;2023-11-19T15:36:09;13.00;99.90
5962;DHT22;3007;50.770;0.250;2023-11-19T15:38:35;13.00;99.90
5962;DHT22;3007;50.770;0.250;2023-11-19T15:41:03;13.00;99.90
5962;DHT22;3007;50.770;0.250;2023-11-19T15:43:30;13.00;99.90
5962;DHT22;3007;50.770;0.250;2023-11-19T15:45:57;13.00;99.90
5962;DHT22;3007;50.770;0.250;2023-11-19T15:48:25;13.00;99.90
5962;DHT22;3007;50.770;0.250;2023-11-19T15:50:52;13.00;99.90
5962;DHT22;3007;50.770;0.250;2023-11-19T15:53:19;13.00;99.90
5962;DHT22;3007;50.770;0.250;2023-11-19T15:55:46;13.00;99.90
5962;DHT22;3007;50.770;0.250;2023-11-19T15:58:13;13.00;99.90
5962;DHT22;3007;50.770;0.250;2023-11-19T16:00:40;13.00;99.90
5962;DHT22;3007;50.770;0.250;2023-11-19T16:03:11;13.00;99.90
5962;DHT22;3007;50.770;0.250;2023-11-19T16:05:40;13.00;99.90
5962;DHT22;3007;50.770;0.250;2023-11-19T16:08:07;13.00;99.90
5962;DHT22;3007;50.770;0.250;2023-11-19T16:10:36;13.10;99.90
5962;DHT22;3007;50.770;0.250;2023-11-19T16:13:05;13.10;99.90
5962;DHT22;3007;50.770;0.250;2023-11-19T16:15:32;13.10;99.90
5962;DHT22;3007;50.770;0.250;2023-11-19T16:17:59;13.00;99.90
5962;DHT22;3007;50.770;0.250;2023-11-19T16:20:26;13.10;99.90
5962;DHT22;3007;50.770;0.250;2023-11-19T16:22:54;13.10;99.90